Terminal Aerodrome Forecast
Issued by NWS

Current Version | Previous Version | Text Only | Print | Product List | Glossary On
Versions: 1 2 3 4 5 6 7 8 9 10 11 12 13 14 15 16 17 18 19 20 21 22 23 24 25
000
FTUS41 KILN 051100
TAFLCK
TAF
KLCK 051137Z 0512/0612 35012KT P6SM OVC080
     FM051700 34008KT P6SM BKN025
     FM060000 35004KT P6SM FEW030
     FM060500 VRB02KT P6SM SKC=

USA.gov is the U.S. government's official web portal to all federal, state and local government web resources and services.